Flight Track Log - Related Links

Times and Time Zones

All times are in EDT time to prevent confusion due to time zone crossing. See the N401DR flight status page for this flight to view local times or setup timezone preferences in your user account.

Time Position Orientation Groundspeed Altitude Reporting Facility
EDT Latitude Longitude Course Direction KTS MPH feet Rate Location/Type
Sun 04:55:00 PM 33.9197 -78.7124 33° Northeast  Level FlightAware Approximate
Sun 04:56:00 PM 33.9624 -78.6791 33° Northeast  Level FlightAware Approximate
Sun 04:57:00 PM 34.0050 -78.6458 33° Northeast  Level FlightAware Approximate
Sun 04:58:00 PM 34.0477 -78.6124 33° Northeast  Level FlightAware Approximate
Sun 04:59:00 PM 34.0903 -78.5790 33° Northeast  Level FlightAware Approximate
Sun 05:00:00 PM 34.1329 -78.5456 33° Northeast  Level FlightAware Approximate
Sun 05:01:00 PM 34.1755 -78.5121 33° Northeast  Level FlightAware Approximate
Sun 05:02:00 PM 34.2182 -78.4786 33° Northeast  Level FlightAware Approximate
Sun 05:03:00 PM 34.2603 -78.4442 35° Northeast  Level FlightAware Approximate
Sun 05:04:00 PM 34.3022 -78.4093 35° Northeast  Level FlightAware Approximate
Sun 05:05:00 PM 34.3440 -78.3744 35° Northeast  Level FlightAware Approximate
Sun 05:06:00 PM 34.3859 -78.3395 35° Northeast  Level FlightAware Approximate
Sun 05:07:00 PM 34.4277 -78.3045 35° Northeast  Level FlightAware Approximate
Sun 05:08:00 PM 34.4696 -78.2695 35° Northeast  Level FlightAware Approximate
Sun 05:09:00 PM 34.5114 -78.2345 35° Northeast  Level FlightAware Approximate
Sun 05:10:00 PM 34.5532 -78.1994 35° Northeast  Level FlightAware Approximate
Sun 05:11:00 PM 34.5950 -78.1642 35° Northeast  Level FlightAware Approximate
Sun 05:12:00 PM 34.6368 -78.1291 35° Northeast  Level FlightAware Approximate
Sun 05:13:00 PM 34.6786 -78.0939 35° Northeast  Level FlightAware Approximate
Sun 05:14:00 PM 34.7203 -78.0587 35° Northeast  Level FlightAware Approximate
Sun 05:15:00 PM 34.7621 -78.0234 35° Northeast  Level FlightAware Approximate
Sun 05:16:00 PM 34.8038 -77.9881 35° Northeast  Level FlightAware Approximate
Sun 05:16:50 PM 34.7628 -78.0164 34° Northeast 195 224 5,100  Level Washington Center
Sun 05:17:00 PM 34.8456 -77.9528 35° Northeast  Level FlightAware Approximate
Sun 05:17:45 PM 34.8053 -77.9822 33° Northeast 196 226 5,100  Level Washington Center
Sun 05:18:00 PM 34.8873 -77.9174 35° Northeast  Level FlightAware Approximate
Sun 05:18:46 PM 34.8456 -77.9456 37° Northeast 196 226 5,100  Level Washington Center
Sun 05:19:00 PM 34.9290 -77.8820 35° Northeast  Level FlightAware Approximate
Sun 05:19:46 PM 34.8942 -77.9089 32° Northeast 198 228 5,100  Level Washington Center
Sun 05:20:00 PM 34.9708 -77.8466 34° Northeast  Level FlightAware Approximate
Sun 05:20:44 PM 34.9431 -77.8700 33° Northeast 194 223 5,100  Level Washington Center
Sun 05:21:00 PM 35.0129 -77.8120 34° Northeast  Level FlightAware Approximate
Sun 05:21:51 PM 34.9875 -77.8306 36° Northeast 193 222 5,100  Level Washington Center
Sun 05:22:00 PM 35.0551 -77.7773 34° Northeast  Level FlightAware Approximate
Sun 05:22:52 PM 35.0322 -77.7911 36° Northeast 192 221 5,100  Level Washington Center
Sun 05:23:53 PM 35.0786 -77.7544 33° Northeast 190 219 5,100  Level Washington Center
Sun 05:24:54 PM 35.1192 -77.7150 38° Northeast 188 216 5,100  Level Washington Center
Sun 05:25:55 PM 35.1636 -77.6781 34° Northeast 191 220 5,100  Level Washington Center
Sun 05:26:55 PM 35.2039 -77.6408 37° Northeast 190 219 5,100  Level Washington Center
Sun 05:27:56 PM 35.2503 -77.6039 33° Northeast 190 219 5,100  Level Washington Center
Sun 05:29:06 PM 35.3011 -77.5567 37° Northeast 191 220 5,100  Level Washington Center
Sun 05:30:07 PM 35.3456 -77.5197 34° Northeast 225 259 5,100  Level Washington Center
Sun 05:31:05 PM 35.3900 -77.4850 32° Northeast 218 251 5,100  Level Washington Center
Sun 05:32:06 PM 35.4303 -77.4478 37° Northeast 195 224 5,100  Level Washington Center
Sun 05:33:07 PM 35.4767 -77.4081 35° Northeast 189 217 5,100  Level Washington Center
Sun 05:34:07 PM 35.5189 -77.3708 36° Northeast 189 217 5,100  Level Washington Center
Sun 05:35:08 PM 35.5633 -77.3361 32° Northeast 189 217 5,100  Level Washington Center
Sun 05:36:08 PM 35.6078 -77.3011 33° Northeast 189 217 5,100  Level Washington Center
Sun 05:37:06 PM 35.6519 -77.2639 34° Northeast 194 223 5,100  Level Washington Center
Sun 05:38:07 PM 35.6983 -77.2264 33° Northeast 189 217 5,100  Level Washington Center
Sun 05:39:06 PM 35.7447 -77.1914 31° Northeast 189 217 5,100  Level Washington Center
Sun 05:40:07 PM 35.7869 -77.1539 36° Northeast 189 217 5,100  Level Washington Center
Sun 05:41:07 PM 35.8292 -77.1139 38° Northeast 189 217 5,100  Level Washington Center
Sun 05:42:08 PM 35.8714 -77.0736 38° Northeast 184 212 5,100  Level Washington Center
Sun 05:43:08 PM 35.9158 -77.0358 35° Northeast 184 212 5,100  Level Washington Center
Sun 05:44:06 PM 35.9578 -77.0008 34° Northeast 184 212 5,100  Level Washington Center
Sun 05:45:06 PM 36.0022 -76.9606 36° Northeast 184 212 5,100  Level Washington Center
Sun 05:46:08 PM 36.0464 -76.9228 35° Northeast 184 212 5,100  Level Washington Center
Sun 05:47:02 PM 36.0864 -76.8875 35° Northeast 184 212 5,100  Level Washington Center
Sun 05:48:11 PM 36.1328 -76.8419 38° Northeast 188 216 5,100  Level Washington Center
Sun 05:49:12 PM 36.1769 -76.8067 33° Northeast 190 219 5,100  Level Washington Center
Sun 05:50:12 PM 36.2211 -76.7661 37° Northeast 190 219 5,100  Level Washington Center
Sun 05:51:07 PM 36.2569 -76.7331 37° Northeast 178 205 5,100  Level Washington Center
Sun 05:52:08 PM 36.2992 -76.6975 34° Northeast 178 205 5,100  Level Washington Center
Sun 05:53:06 PM 36.3411 -76.6569 38° Northeast 178 205 5,100  Level Washington Center
Sun 05:53:21 PM 36.3539 -76.6442 39° Northeast 192 221 5,100  Level Washington Center
Sun 05:54:07 PM 36.3833 -76.6189 35° Northeast 178 205 5,100  Level Washington Center
Sun 05:55:07 PM 36.4275 -76.5806 35° Northeast 178 205 5,100  Level Washington Center
Sun 05:56:14 PM 36.4819 -76.5375 32° Northeast 191 220 5,100  Level Washington Center
Sun 05:57:15 PM 36.5178 -76.4889 47° Northeast 191 220 5,100  Level Washington Center
Sun 05:58:18 PM 36.5558 -76.4400 46° Northeast 193 222 5,100  Level Washington Center
Sun 05:59:16 PM 36.5936 -76.3886 48° Northeast 192 221 5,100  Level Washington Center
Sun 06:00:07 PM 36.6231 -76.3503 46° Northeast 192 221 5,100 -110 Level Washington Center
Sun 06:01:05 PM 36.6650 -76.3067 40° Northeast 199 229 4,900 -555 Descending Washington Center
Sun 06:02:06 PM 36.7111 -76.2603 39° Northeast 213 245 4,000 -844 Descending Washington Center
Sun 06:03:13 PM 36.7617 -76.2117 38° Northeast 207 238 3,100 -469 Descending Washington Center
Sun 06:04:14 PM 36.8014 -76.1703 40° Northeast 181 208 3,000 -47 Descending Washington Center
Sun 06:05:21 PM 36.8433 -76.1267 40° Northeast 176 203 3,000  Level Washington Center
Sun 06:06:16 PM 36.8789 -76.0956 35° Northeast 176 203 3,000 -209 Level Washington Center
Sun 06:07:16 PM 36.9269 -76.0856 North 193 222 2,600 -545 Descending Washington Center
Sun 06:08:17 PM 36.9581 -76.1325 310° West 182 209 1,900 -793 Descending Washington Center
Sun 06:09:17 PM 36.9328 -76.1661 227° Southwest 126 145 1,000 -900 Descending Washington Center

Login

Don't have an account? Register now (free) for customized features, flight alerts, and more!